Time;durP1;ratioP1;P1;durP2;ratioP2;P2;SDS_P1;SDS_P2;PMS_P1;PMS_P2;Temp;Humidity;BMP_temperature;BMP_pressure;BME280_temperature;BME280_humidity;BME280_pressure;Samples;Min_cycle;Max_cycle;Signal;HPM_P1;HPM_P2
2022/04/27 00:01:31;;;;;;;9.10;8.20;;;;;;;;;;4997785;28;94086;-74
2022/04/27 00:03:58;;;;;;;10.63;7.90;;;;;;;;;;5001471;28;91539;-74
2022/04/27 00:06:24;;;;;;;13.05;7.68;;;;;;;;;;4997753;28;93571;-77
2022/04/27 00:08:50;;;;;;;10.13;7.22;;;;;;;;;;4998252;28;92310;-76
2022/04/27 00:11:17;;;;;;;8.85;7.65;;;;;;;;;;5001495;28;94848;-73
2022/04/27 00:13:43;;;;;;;8.90;7.72;;;;;;;;;;4997971;28;93310;-75
2022/04/27 00:16:10;;;;;;;8.43;7.40;;;;;;;;;;4997799;28;92120;-74
2022/04/27 00:18:36;;;;;;;10.18;7.68;;;;;;;;;;4997720;28;92730;-73
2022/04/27 00:21:02;;;;;;;9.15;8.07;;;;;;;;;;4997560;28;93577;-74
2022/04/27 00:23:30;;;;;;;10.07;7.85;;;;;;;;;;4997293;28;92392;-74
2022/04/27 00:25:56;;;;;;;8.38;7.47;;;;;;;;;;5000772;28;93118;-75
2022/04/27 00:28:23;;;;;;;9.07;7.45;;;;;;;;;;4998224;28;91455;-74
2022/04/27 00:30:49;;;;;;;8.38;7.53;;;;;;;;;;4979485;28;92756;-75
2022/04/27 00:33:16;;;;;;;8.57;7.78;;;;;;;;;;4997332;28;93461;-75
2022/04/27 00:35:42;;;;;;;8.70;7.68;;;;;;;;;;4995828;28;94759;-76
2022/04/27 00:38:08;;;;;;;8.75;6.90;;;;;;;;;;4995966;28;96851;-74
2022/04/27 00:40:35;;;;;;;11.20;8.18;;;;;;;;;;4996790;28;93692;-74
2022/04/27 00:43:01;;;;;;;7.80;7.05;;;;;;;;;;4997478;28;93270;-75
2022/04/27 00:45:27;;;;;;;9.23;7.95;;;;;;;;;;5000359;28;93307;-75
2022/04/27 00:47:54;;;;;;;7.28;6.55;;;;;;;;;;5009567;28;93393;-74
2022/04/27 00:50:20;;;;;;;11.35;7.55;;;;;;;;;;5015637;28;93665;-75
2022/04/27 00:52:47;;;;;;;8.77;7.28;;;;;;;;;;4999664;28;94210;-74
2022/04/27 00:55:14;;;;;;;8.70;7.18;;;;;;;;;;5017345;28;92388;-74
2022/04/27 00:57:46;;;;;;;11.55;7.07;;;;;;;;;;4998808;28;94362;-75
2022/04/27 01:00:14;;;;;;;10.10;8.20;;;;;;;;;;4997671;28;95987;-75
2022/04/27 01:02:42;;;;;;;9.35;7.40;;;;;;;;;;5016715;28;93182;-75
2022/04/27 01:05:11;;;;;;;7.88;7.03;;;;;;;;;;4998855;28;94993;-73
2022/04/27 01:07:39;;;;;;;8.15;7.35;;;;;;;;;;5001973;28;96024;-73
2022/04/27 01:10:07;;;;;;;10.30;7.47;;;;;;;;;;4999196;28;96276;-75
2022/04/27 01:12:34;;;;;;;8.15;7.45;;;;;;;;;;4998858;28;95462;-74
2022/04/27 01:15:06;;;;;;;8.20;7.32;;;;;;;;;;4999043;28;94518;-75
2022/04/27 01:17:34;;;;;;;8.73;7.80;;;;;;;;;;4998944;28;95110;-74
2022/04/27 01:20:01;;;;;;;9.60;7.28;;;;;;;;;;4998883;28;96062;-74
2022/04/27 01:22:28;;;;;;;9.98;7.57;;;;;;;;;;4998892;28;92469;-75
2022/04/27 01:24:56;;;;;;;9.23;7.22;;;;;;;;;;4997461;28;95521;-74
2022/04/27 01:27:23;;;;;;;9.52;7.57;;;;;;;;;;4998907;28;94657;-74
2022/04/27 01:29:50;;;;;;;7.72;7.03;;;;;;;;;;5018571;28;92393;-74
2022/04/27 01:32:16;;;;;;;8.30;7.47;;;;;;;;;;4998539;28;94241;-74
2022/04/27 01:34:43;;;;;;;8.48;7.07;;;;;;;;;;5015717;28;92476;-75
2022/04/27 01:39:54;;;;;;;8.45;7.60;;;;;;;;;;5016450;28;93771;-74
2022/04/27 01:42:21;;;;;;;8.55;7.55;;;;;;;;;;4998902;28;91588;-73
2022/04/27 01:44:49;;;;;;;10.50;7.97;;;;;;;;;;5015215;28;93596;-75
2022/04/27 01:47:15;;;;;;;10.20;7.88;;;;;;;;;;4998502;28;96120;-74
2022/04/27 01:49:42;;;;;;;8.90;7.32;;;;;;;;;;5013776;28;94991;-73
2022/04/27 01:54:54;;;;;;;9.15;7.35;;;;;;;;;;5019810;28;92367;-75
2022/04/27 01:57:22;;;;;;;8.38;7.55;;;;;;;;;;5019918;28;93579;-74
2022/04/27 01:59:49;;;;;;;8.48;7.63;;;;;;;;;;5001954;28;95753;-74
2022/04/27 02:02:15;;;;;;;9.95;7.32;;;;;;;;;;5002124;28;92981;-75
2022/04/27 02:04:44;;;;;;;8.70;7.80;;;;;;;;;;5002151;28;95748;-74
2022/04/27 02:07:16;;;;;;;9.68;7.68;;;;;;;;;;5018910;28;94731;-73
2022/04/27 02:09:43;;;;;;;7.97;7.18;;;;;;;;;;5018215;28;92494;-74
2022/04/27 02:12:10;;;;;;;10.07;7.68;;;;;;;;;;5001801;28;95378;-74
2022/04/27 02:14:38;;;;;;;9.93;8.00;;;;;;;;;;5003141;28;97474;-73
2022/04/27 02:17:05;;;;;;;11.73;7.70;;;;;;;;;;5001720;28;98482;-74
2022/04/27 02:19:32;;;;;;;10.10;7.90;;;;;;;;;;5001755;28;96028;-76
2022/04/27 02:21:59;;;;;;;9.43;7.75;;;;;;;;;;5020223;28;93550;-75
2022/04/27 02:24:26;;;;;;;9.32;8.23;;;;;;;;;;5001078;28;96077;-75
2022/04/27 02:26:54;;;;;;;8.65;7.72;;;;;;;;;;5001583;28;94729;-72
2022/04/27 02:29:24;;;;;;;8.88;7.72;;;;;;;;;;5018326;28;92363;-73
2022/04/27 02:31:51;;;;;;;8.30;7.50;;;;;;;;;;5002186;28;96226;-75
2022/04/27 02:34:17;;;;;;;10.52;8.10;;;;;;;;;;5017893;28;96828;-75
2022/04/27 02:36:44;;;;;;;9.23;7.15;;;;;;;;;;5020102;28;92521;-74
2022/04/27 02:39:12;;;;;;;8.80;7.90;;;;;;;;;;4999467;28;97869;-74
2022/04/27 02:41:41;;;;;;;8.77;7.80;;;;;;;;;;5001664;28;92453;-73
2022/04/27 02:44:07;;;;;;;8.82;8.02;;;;;;;;;;5001226;28;93996;-73
2022/04/27 02:46:33;;;;;;;9.93;7.75;;;;;;;;;;5018288;28;93349;-74
2022/04/27 02:51:48;;;;;;;9.63;7.25;;;;;;;;;;5018355;28;93139;-73
2022/04/27 02:54:20;;;;;;;8.20;7.22;;;;;;;;;;4999310;28;95393;-74
2022/04/27 02:56:48;;;;;;;8.38;7.55;;;;;;;;;;5019644;28;92526;-74
2022/04/27 02:59:15;;;;;;;9.80;7.10;;;;;;;;;;5000154;28;96699;-74
2022/04/27 03:01:49;;;;;;;9.32;7.60;;;;;;;;;;5018316;28;92261;-72
2022/04/27 03:04:17;;;;;;;8.93;8.00;;;;;;;;;;5016343;28;94779;-73
2022/04/27 03:06:44;;;;;;;9.57;7.90;;;;;;;;;;5000363;28;95314;-74
2022/04/27 03:09:10;;;;;;;8.48;7.22;;;;;;;;;;5001242;28;92696;-74
2022/04/27 03:11:37;;;;;;;11.30;8.10;;;;;;;;;;5017693;28;95801;-74
2022/04/27 03:14:15;;;;;;;11.25;7.35;;;;;;;;;;5000547;28;96270;-74
2022/04/27 03:16:41;;;;;;;9.43;7.80;;;;;;;;;;5000704;28;92498;-74
2022/04/27 03:19:08;;;;;;;12.48;7.63;;;;;;;;;;5003720;28;96160;-75
2022/04/27 03:21:34;;;;;;;10.60;8.20;;;;;;;;;;5018422;28;91543;-74
2022/04/27 03:24:01;;;;;;;8.77;7.70;;;;;;;;;;5000910;28;94897;-74
2022/04/27 03:26:28;;;;;;;8.27;7.40;;;;;;;;;;5000559;28;96245;-74
2022/04/27 03:28:56;;;;;;;10.90;7.80;;;;;;;;;;5017146;28;94638;-75
2022/04/27 03:31:23;;;;;;;13.85;8.82;;;;;;;;;;5000111;28;98502;-73
2022/04/27 03:33:50;;;;;;;9.60;7.72;;;;;;;;;;5000309;28;95594;-75
2022/04/27 03:36:16;;;;;;;8.02;7.25;;;;;;;;;;5017220;28;92316;-74
2022/04/27 03:38:43;;;;;;;11.98;7.47;;;;;;;;;;5000592;28;93557;-74
2022/04/27 03:41:09;;;;;;;10.52;7.57;;;;;;;;;;5020011;28;95182;-74
2022/04/27 03:43:40;;;;;;;10.77;7.95;;;;;;;;;;4999814;28;95949;-75
2022/04/27 03:46:06;;;;;;;11.40;7.82;;;;;;;;;;5000892;28;95486;-74
2022/04/27 03:48:37;;;;;;;9.60;7.68;;;;;;;;;;5000264;28;92389;-74
2022/04/27 03:51:04;;;;;;;10.82;8.57;;;;;;;;;;5016980;28;95519;-73
2022/04/27 03:53:31;;;;;;;11.43;8.18;;;;;;;;;;4998399;28;98317;-75
2022/04/27 03:55:57;;;;;;;8.45;7.13;;;;;;;;;;4999995;28;92404;-74
2022/04/27 03:58:24;;;;;;;9.52;7.50;;;;;;;;;;4983407;28;95301;-73
2022/04/27 04:00:50;;;;;;;10.00;8.35;;;;;;;;;;4999893;28;95490;-73
2022/04/27 04:03:19;;;;;;;9.55;8.60;;;;;;;;;;5020875;28;92278;-74
2022/04/27 04:05:49;;;;;;;13.48;9.00;;;;;;;;;;4999724;28;96490;-74
2022/04/27 04:08:17;;;;;;;13.63;8.80;;;;;;;;;;4999961;28;92432;-73
2022/04/27 04:10:46;;;;;;;12.27;8.95;;;;;;;;;;5000160;28;96029;-74
2022/04/27 04:13:13;;;;;;;11.02;9.20;;;;;;;;;;4999325;28;94093;-74
2022/04/27 04:16:00;;;;;;;13.80;8.50;;;;;;;;;;5009464;28;92393;-75
2022/04/27 04:18:39;;;;;;;13.07;9.07;;;;;;;;;;5014607;28;94896;-74
2022/04/27 04:21:16;;;;;;;11.52;8.57;;;;;;;;;;4999103;28;96371;-74
2022/04/27 04:23:57;;;;;;;10.55;7.97;;;;;;;;;;5016418;28;92539;-74
2022/04/27 04:29:08;;;;;;;14.70;8.70;;;;;;;;;;5021840;28;92318;-75
2022/04/27 04:31:35;;;;;;;11.57;9.25;;;;;;;;;;5007105;28;96132;-74
2022/04/27 04:34:14;;;;;;;13.48;8.55;;;;;;;;;;5017643;28;92916;-74
2022/04/27 04:36:42;;;;;;;11.70;8.75;;;;;;;;;;5000218;28;91619;-74
2022/04/27 04:39:09;;;;;;;17.15;9.18;;;;;;;;;;4999697;28;94582;-74
2022/04/27 04:41:37;;;;;;;10.73;8.65;;;;;;;;;;5013474;28;95697;-74
2022/04/27 04:44:05;;;;;;;10.20;8.07;;;;;;;;;;5015494;28;95520;-75
2022/04/27 04:47:01;;;;;;;10.27;8.27;;;;;;;;;;5006169;28;95179;-73
2022/04/27 04:49:39;;;;;;;15.82;8.77;;;;;;;;;;4999497;28;92411;-74
2022/04/27 04:52:13;;;;;;;14.43;8.95;;;;;;;;;;4999101;28;95291;-74
2022/04/27 04:54:49;;;;;;;9.73;7.88;;;;;;;;;;4999084;28;95188;-73
2022/04/27 04:57:47;;;;;;;8.98;7.63;;;;;;;;;;4999129;28;92513;-73
2022/04/27 05:00:32;;;;;;;9.75;7.47;;;;;;;;;;5021573;28;92729;-73
2022/04/27 05:03:16;;;;;;;18.40;8.68;;;;;;;;;;5016285;28;96280;-74
2022/04/27 05:06:03;;;;;;;9.65;7.80;;;;;;;;;;5016586;28;92396;-74
2022/04/27 05:08:50;;;;;;;9.68;7.80;;;;;;;;;;4953708;28;92738;-73
2022/04/27 05:11:27;;;;;;;10.38;7.95;;;;;;;;;;5017329;28;97554;-73
2022/04/27 05:14:16;;;;;;;12.77;7.93;;;;;;;;;;4974150;28;94998;-73
2022/04/27 05:17:13;;;;;;;8.35;7.03;;;;;;;;;;5015412;28;95304;-75
2022/04/27 05:19:51;;;;;;;9.77;7.78;;;;;;;;;;5016818;28;92295;-73
2022/04/27 05:22:33;;;;;;;13.57;7.45;;;;;;;;;;4998801;28;95044;-75
2022/04/27 05:25:13;;;;;;;10.40;6.65;;;;;;;;;;4999690;28;95856;-75
2022/04/27 05:28:04;;;;;;;8.97;8.07;;;;;;;;;;5020546;28;92309;-74
2022/04/27 05:34:01;;;;;;;7.95;7.15;;;;;;;;;;5019439;28;92854;-74
2022/04/27 05:36:39;;;;;;;8.27;7.47;;;;;;;;;;5005454;28;92341;-73
2022/04/27 05:39:15;;;;;;;8.00;7.22;;;;;;;;;;5000457;28;97960;-74
2022/04/27 05:42:02;;;;;;;7.53;6.85;;;;;;;;;;4988672;28;92377;-73
2022/04/27 05:44:46;;;;;;;7.57;6.80;;;;;;;;;;5017965;28;92718;-73
2022/04/27 05:47:25;;;;;;;7.55;6.88;;;;;;;;;;5002127;28;96402;-73
2022/04/27 05:50:08;;;;;;;7.97;6.85;;;;;;;;;;5002506;28;92356;-73
2022/04/27 05:52:49;;;;;;;8.35;7.20;;;;;;;;;;5018203;28;94301;-74
2022/04/27 05:55:36;;;;;;;8.90;7.00;;;;;;;;;;5017900;28;92632;-73
2022/04/27 05:58:20;;;;;;;7.60;6.90;;;;;;;;;;5002282;28;91575;-73
2022/04/27 06:01:09;;;;;;;7.75;7.10;;;;;;;;;;5016129;28;92460;-73
2022/04/27 06:03:47;;;;;;;7.13;6.43;;;;;;;;;;5001997;28;92204;-73
2022/04/27 06:06:14;;;;;;;7.70;7.10;;;;;;;;;;5018079;28;94753;-73
2022/04/27 06:08:41;;;;;;;7.82;7.00;;;;;;;;;;5018340;28;95650;-74
2022/04/27 06:11:16;;;;;;;8.10;7.40;;;;;;;;;;5018681;28;92408;-73
2022/04/27 06:14:02;;;;;;;7.80;7.20;;;;;;;;;;5019146;28;94121;-73
2022/04/27 06:16:37;;;;;;;10.07;7.05;;;;;;;;;;5018339;28;96226;-74
2022/04/27 06:19:06;;;;;;;10.70;7.80;;;;;;;;;;5001704;28;92366;-75
2022/04/27 06:21:34;;;;;;;8.13;7.43;;;;;;;;;;5001553;28;96060;-74
2022/04/27 06:24:04;;;;;;;8.75;7.75;;;;;;;;;;5004862;28;94874;-75
2022/04/27 06:26:33;;;;;;;8.57;7.82;;;;;;;;;;5018093;28;94942;-76
2022/04/27 06:29:00;;;;;;;12.23;8.15;;;;;;;;;;5001361;28;95441;-75
2022/04/27 06:31:27;;;;;;;9.07;8.15;;;;;;;;;;5016575;28;94806;-76
2022/04/27 06:33:57;;;;;;;8.93;8.15;;;;;;;;;;5018235;28;97593;-74
2022/04/27 06:36:24;;;;;;;8.75;7.90;;;;;;;;;;5000424;28;96080;-75
2022/04/27 06:38:51;;;;;;;13.45;8.20;;;;;;;;;;5018952;28;92283;-75
2022/04/27 06:41:28;;;;;;;8.35;7.22;;;;;;;;;;5018366;28;92726;-74
2022/04/27 06:44:13;;;;;;;9.40;8.50;;;;;;;;;;5017861;28;92668;-75
2022/04/27 06:47:03;;;;;;;9.93;7.70;;;;;;;;;;5001789;28;93000;-75
2022/04/27 06:49:48;;;;;;;8.77;7.63;;;;;;;;;;5017748;28;91514;-75
2022/04/27 06:52:47;;;;;;;10.45;7.57;;;;;;;;;;5014196;28;92423;-74
2022/04/27 06:55:39;;;;;;;10.38;7.85;;;;;;;;;;5018302;28;93396;-76
2022/04/27 06:58:24;;;;;;;9.07;6.97;;;;;;;;;;5016855;28;94948;-75
2022/04/27 07:01:01;;;;;;;8.10;6.00;;;;;;;;;;5001053;28;92474;-77
2022/04/27 07:03:31;;;;;;;9.07;5.53;;;;;;;;;;5019116;28;93199;-76
2022/04/27 07:05:57;;;;;;;10.52;6.32;;;;;;;;;;5000395;28;96042;-80
2022/04/27 07:08:24;;;;;;;10.45;5.75;;;;;;;;;;5004242;28;92348;-76
2022/04/27 07:10:51;;;;;;;6.88;5.60;;;;;;;;;;5018830;28;92707;-74
2022/04/27 07:13:17;;;;;;;9.38;6.10;;;;;;;;;;5018739;28;92395;-75
2022/04/27 07:15:49;;;;;;;;;;;;;;;;;;5019537;28;92453;-75
2022/04/27 07:18:15;;;;;;;7.32;5.15;;;;;;;;;;5017326;28;121999;-75
2022/04/27 07:20:41;;;;;;;4.97;4.25;;;;;;;;;;5018815;28;92625;-76
2022/04/27 07:23:08;;;;;;;7.65;5.63;;;;;;;;;;5017073;28;94727;-76
2022/04/27 07:25:34;;;;;;;8.77;4.97;;;;;;;;;;5018301;28;93594;-76
2022/04/27 07:28:00;;;;;;;9.80;4.93;;;;;;;;;;5018453;28;92253;-75
2022/04/27 07:30:30;;;;;;;9.95;5.13;;;;;;;;;;5021082;28;95161;-74
2022/04/27 07:32:57;;;;;;;9.13;4.68;;;;;;;;;;5018298;28;92312;-74
2022/04/27 07:35:23;;;;;;;7.88;4.80;;;;;;;;;;5018316;28;93715;-74
2022/04/27 07:37:49;;;;;;;5.68;4.47;;;;;;;;;;5018159;28;92984;-75
2022/04/27 07:40:16;;;;;;;4.95;4.47;;;;;;;;;;5018566;28;91637;-73
2022/04/27 07:42:42;;;;;;;4.80;4.20;;;;;;;;;;5018081;28;92657;-74
2022/04/27 07:45:09;;;;;;;7.43;4.20;;;;;;;;;;5018112;28;93722;-74
2022/04/27 07:47:48;;;;;;;6.38;4.13;;;;;;;;;;5016147;28;94772;-76
2022/04/27 07:50:15;;;;;;;5.85;4.47;;;;;;;;;;5018039;28;96428;-74
2022/04/27 07:52:43;;;;;;;6.40;3.80;;;;;;;;;;5021013;28;93377;-74
2022/04/27 07:55:12;;;;;;;7.07;3.92;;;;;;;;;;5018038;28;93452;-74
2022/04/27 07:57:38;;;;;;;4.32;3.80;;;;;;;;;;5017750;28;92573;-76
2022/04/27 08:00:09;;;;;;;5.85;4.40;;;;;;;;;;4999957;28;92325;-74
2022/04/27 08:02:39;;;;;;;7.10;3.72;;;;;;;;;;5016648;28;95297;-76
2022/04/27 08:05:06;;;;;;;3.80;3.22;;;;;;;;;;5018335;28;92746;-77
2022/04/27 08:07:39;;;;;;;4.65;3.35;;;;;;;;;;5017935;28;92437;-74
2022/04/27 08:10:09;;;;;;;8.70;4.03;;;;;;;;;;5013795;28;93882;-73
2022/04/27 08:12:35;;;;;;;9.07;3.60;;;;;;;;;;4983744;28;96333;-74
2022/04/27 08:15:02;;;;;;;5.53;3.72;;;;;;;;;;5009394;28;92377;-74
2022/04/27 08:17:28;;;;;;;7.93;3.90;;;;;;;;;;5007225;28;93235;-75
2022/04/27 08:21:13;;;;;;;8.32;3.85;;;;;;;;;;5007740;28;92317;-76
2022/04/27 08:22:41;;;;;;;7.00;4.00;;;;;;;;;;5008713;28;92594;-75
2022/04/27 08:25:09;;;;;;;9.75;4.00;;;;;;;;;;5005337;28;93422;-74
2022/04/27 08:27:36;;;;;;;9.43;3.60;;;;;;;;;;4990159;28;92377;-75
2022/04/27 08:30:02;;;;;;;4.05;3.28;;;;;;;;;;5007167;28;93852;-75
2022/04/27 08:32:28;;;;;;;5.57;3.17;;;;;;;;;;5005105;28;93755;-75
2022/04/27 08:34:55;;;;;;;4.85;2.85;;;;;;;;;;5005680;28;92348;-76
2022/04/27 08:37:21;;;;;;;3.92;3.00;;;;;;;;;;5009928;28;94882;-76
2022/04/27 08:39:49;;;;;;;4.40;3.45;;;;;;;;;;4974896;28;92487;-75
2022/04/27 08:42:15;;;;;;;5.25;2.97;;;;;;;;;;5004089;28;93371;-76
2022/04/27 08:44:41;;;;;;;4.78;3.05;;;;;;;;;;4989262;28;92942;-74
2022/04/27 08:47:08;;;;;;;3.65;3.30;;;;;;;;;;5008190;28;92337;-77
2022/04/27 08:49:35;;;;;;;8.27;3.40;;;;;;;;;;5007035;28;93276;-77
2022/04/27 08:52:01;;;;;;;5.45;3.17;;;;;;;;;;5008357;28;93748;-77
2022/04/27 08:54:28;;;;;;;4.28;2.80;;;;;;;;;;5005032;28;91576;-76
2022/04/27 08:56:54;;;;;;;4.57;2.60;;;;;;;;;;5005261;28;92270;-77
2022/04/27 08:59:25;;;;;;;3.88;3.15;;;;;;;;;;5006974;28;92862;-78
2022/04/27 09:01:53;;;;;;;7.28;2.50;;;;;;;;;;5006556;28;94758;-78
2022/04/27 09:04:20;;;;;;;3.10;2.80;;;;;;;;;;5005229;28;94623;-77
2022/04/27 09:06:50;;;;;;;5.35;2.75;;;;;;;;;;5006453;28;92358;-78
2022/04/27 09:09:37;;;;;;;2.67;2.47;;;;;;;;;;5008298;28;93134;-75
2022/04/27 09:12:12;;;;;;;2.65;2.08;;;;;;;;;;5001856;28;92962;-77
2022/04/27 09:14:40;;;;;;;3.05;2.30;;;;;;;;;;5005933;28;92438;-79
2022/04/27 09:20:57;;;;;;;5.07;2.25;;;;;;;;;;5008043;28;91935;-77
2022/04/27 09:23:03;;;;;;;3.83;2.42;;;;;;;;;;4996091;28;92553;-76
2022/04/27 09:25:31;;;;;;;3.03;2.53;;;;;;;;;;5004422;28;93542;-77
2022/04/27 09:28:17;;;;;;;4.80;2.40;;;;;;;;;;5002573;28;94657;-76
2022/04/27 09:30:46;;;;;;;3.08;2.05;;;;;;;;;;5002315;28;95119;-77
2022/04/27 09:33:13;;;;;;;7.25;2.58;;;;;;;;;;5007222;28;93015;-79
2022/04/27 09:35:39;;;;;;;2.75;2.10;;;;;;;;;;5003590;28;92943;-77
2022/04/27 09:38:13;;;;;;;3.08;2.40;;;;;;;;;;4983208;28;92687;-76
2022/04/27 09:40:49;;;;;;;6.65;2.40;;;;;;;;;;5000527;28;93266;-76
2022/04/27 09:43:16;;;;;;;5.30;2.15;;;;;;;;;;5005350;28;93854;-78
2022/04/27 09:45:43;;;;;;;3.50;2.40;;;;;;;;;;5008487;28;93226;-77
2022/04/27 09:48:17;;;;;;;6.03;2.42;;;;;;;;;;5000493;28;92240;-77
2022/04/27 09:50:48;;;;;;;3.78;3.00;;;;;;;;;;4998307;28;93911;-77
2022/04/27 09:53:15;;;;;;;3.28;2.22;;;;;;;;;;4994904;28;96757;-77
2022/04/27 09:55:44;;;;;;;3.42;2.42;;;;;;;;;;5000466;28;92145;-76
2022/04/27 09:58:11;;;;;;;5.10;2.70;;;;;;;;;;5007297;28;92260;-77
2022/04/27 10:00:39;;;;;;;5.32;2.75;;;;;;;;;;5002108;28;93198;-78
2022/04/27 10:03:06;;;;;;;2.78;2.58;;;;;;;;;;5006774;28;92231;-76
2022/04/27 10:05:32;;;;;;;4.68;2.72;;;;;;;;;;5008261;28;94647;-76
2022/04/27 10:08:00;;;;;;;4.63;3.05;;;;;;;;;;5005208;28;92383;-76
2022/04/27 10:10:27;;;;;;;7.78;2.65;;;;;;;;;;5003880;28;92850;-77
2022/04/27 10:12:53;;;;;;;7.22;2.72;;;;;;;;;;5007232;28;93583;-76
2022/04/27 10:15:20;;;;;;;4.40;2.70;;;;;;;;;;5011005;28;92344;-77
2022/04/27 10:17:47;;;;;;;3.17;2.30;;;;;;;;;;5001816;28;94805;-76
2022/04/27 10:20:29;;;;;;;6.20;2.90;;;;;;;;;;5007826;28;92657;-77
2022/04/27 10:23:16;;;;;;;3.78;2.70;;;;;;;;;;4978998;28;92434;-77
2022/04/27 10:26:03;;;;;;;2.95;2.58;;;;;;;;;;5008484;28;92905;-75
2022/04/27 10:28:29;;;;;;;5.43;2.40;;;;;;;;;;5007384;28;92991;-76
2022/04/27 10:30:57;;;;;;;3.30;2.30;;;;;;;;;;5010636;28;93729;-75
2022/04/27 10:33:38;;;;;;;2.80;2.50;;;;;;;;;;4985835;28;92883;-78
2022/04/27 10:36:23;;;;;;;2.83;2.30;;;;;;;;;;5006159;28;91663;-76
2022/04/27 10:39:08;;;;;;;5.30;2.90;;;;;;;;;;5011787;28;92581;-76
2022/04/27 10:41:35;;;;;;;5.18;2.90;;;;;;;;;;5006396;28;93576;-77
2022/04/27 10:44:03;;;;;;;7.20;3.40;;;;;;;;;;5008195;28;94830;-80
2022/04/27 10:46:35;;;;;;;4.22;3.17;;;;;;;;;;4981832;28;95152;-76
2022/04/27 10:49:01;;;;;;;;;;;;;;;;;;5003618;28;93691;-75
2022/04/27 10:51:59;;;;;;;3.85;2.90;;;;;;;;;;5009182;28;92148;-76
2022/04/27 10:54:33;;;;;;;3.17;2.63;;;;;;;;;;5010442;28;93099;-76
2022/04/27 10:57:15;;;;;;;4.82;2.97;;;;;;;;;;5004832;28;92385;-77
2022/04/27 10:59:41;;;;;;;;;;;;;;;;;;5007252;28;92786;-75
2022/04/27 11:02:27;;;;;;;5.07;3.00;;;;;;;;;;5008627;28;120267;-75
2022/04/27 11:04:56;;;;;;;3.63;3.05;;;;;;;;;;5008931;28;92295;-78
2022/04/27 11:07:41;;;;;;;11.00;3.10;;;;;;;;;;5005948;28;92726;-77
2022/04/27 11:10:15;;;;;;;8.23;2.92;;;;;;;;;;5001540;28;94674;-77
2022/04/27 11:12:43;;;;;;;3.35;3.03;;;;;;;;;;5004140;28;92258;-76
2022/04/27 11:15:11;;;;;;;3.75;2.85;;;;;;;;;;4994429;28;95009;-78
2022/04/27 11:17:40;;;;;;;6.75;2.95;;;;;;;;;;5005514;28;92424;-76
2022/04/27 11:20:27;;;;;;;6.13;3.00;;;;;;;;;;5002789;28;92287;-76
2022/04/27 11:22:53;;;;;;;3.25;2.70;;;;;;;;;;5005503;28;93028;-74
2022/04/27 11:25:28;;;;;;;5.63;2.80;;;;;;;;;;5008612;28;92340;-75
2022/04/27 11:27:55;;;;;;;4.30;2.88;;;;;;;;;;5010972;28;93843;-75
2022/04/27 11:30:22;;;;;;;22.60;15.35;;;;;;;;;;5006982;28;93596;-77
2022/04/27 11:32:49;;;;;;;10.45;3.20;;;;;;;;;;5007908;28;92307;-75
2022/04/27 11:35:16;;;;;;;7.72;2.78;;;;;;;;;;5006455;28;95796;-77
2022/04/27 11:37:43;;;;;;;3.85;2.97;;;;;;;;;;4978558;28;92284;-75
2022/04/27 11:40:12;;;;;;;2.83;2.60;;;;;;;;;;4995813;28;94176;-76
2022/04/27 11:42:46;;;;;;;3.47;3.17;;;;;;;;;;5016196;28;94740;-75
2022/04/27 11:45:23;;;;;;;4.63;2.95;;;;;;;;;;5016749;28;93022;-75
2022/04/27 11:48:18;;;;;;;4.95;2.97;;;;;;;;;;5018139;28;93463;-76
2022/04/27 11:50:44;;;;;;;3.40;2.65;;;;;;;;;;5016502;28;93502;-75
2022/04/27 11:53:14;;;;;;;5.72;2.95;;;;;;;;;;5018431;28;91652;-75
2022/04/27 11:55:41;;;;;;;3.75;3.20;;;;;;;;;;5017519;28;92677;-75
2022/04/27 11:58:07;;;;;;;3.58;3.00;;;;;;;;;;5020895;28;93758;-75
2022/04/27 12:00:35;;;;;;;4.60;3.20;;;;;;;;;;5016591;28;94706;-76
2022/04/27 12:03:05;;;;;;;4.82;3.42;;;;;;;;;;5016672;28;93765;-74
2022/04/27 12:05:36;;;;;;;4.10;3.35;;;;;;;;;;5017723;28;92356;-74
2022/04/27 12:08:09;;;;;;;5.85;3.45;;;;;;;;;;5017549;28;93463;-74
2022/04/27 12:10:40;;;;;;;4.30;3.83;;;;;;;;;;5017718;28;93623;-75
2022/04/27 12:13:07;;;;;;;3.33;3.03;;;;;;;;;;5018025;28;92436;-75
2022/04/27 12:15:33;;;;;;;3.85;3.15;;;;;;;;;;5000479;28;92882;-76
2022/04/27 12:18:01;;;;;;;6.72;3.33;;;;;;;;;;5018264;28;92332;-76
2022/04/27 12:20:29;;;;;;;8.77;3.25;;;;;;;;;;5020777;28;92217;-74
2022/04/27 12:22:59;;;;;;;5.00;3.45;;;;;;;;;;5017360;28;93932;-75
2022/04/27 12:26:01;;;;;;;3.40;2.87;;;;;;;;;;5016370;28;94742;-75
2022/04/27 12:28:29;;;;;;;3.17;2.97;;;;;;;;;;5017857;28;96021;-75
2022/04/27 12:30:57;;;;;;;3.30;3.00;;;;;;;;;;5016968;28;93853;-75
2022/04/27 12:33:27;;;;;;;7.05;3.30;;;;;;;;;;5008749;28;92225;-76
2022/04/27 12:39:02;;;;;;;3.38;3.00;;;;;;;;;;4997245;28;94443;-74
2022/04/27 12:41:32;;;;;;;5.63;2.97;;;;;;;;;;4978199;28;92398;-75
2022/04/27 12:44:05;;;;;;;3.80;3.10;;;;;;;;;;5001006;28;93372;-73
2022/04/27 12:46:59;;;;;;;6.60;3.38;;;;;;;;;;4997216;28;92247;-74
2022/04/27 12:49:30;;;;;;;5.13;3.30;;;;;;;;;;4997455;28;93366;-77
2022/04/27 12:52:12;;;;;;;9.52;3.25;;;;;;;;;;4995059;28;95832;-75
2022/04/27 12:54:38;;;;;;;4.10;3.30;;;;;;;;;;4997451;28;92346;-74
2022/04/27 12:57:06;;;;;;;8.07;3.17;;;;;;;;;;4996781;28;94477;-74
2022/04/27 12:59:32;;;;;;;6.95;3.00;;;;;;;;;;4997250;28;93741;-73
2022/04/27 13:02:05;;;;;;;5.38;3.35;;;;;;;;;;4996739;28;92262;-75
2022/04/27 13:04:31;;;;;;;5.28;3.25;;;;;;;;;;4997941;28;92895;-74
2022/04/27 13:06:58;;;;;;;6.20;3.60;;;;;;;;;;5004292;28;93143;-74
2022/04/27 13:12:12;;;;;;;3.88;2.75;;;;;;;;;;4997011;28;92699;-76
2022/04/27 13:14:42;;;;;;;4.95;3.00;;;;;;;;;;5000724;28;93454;-77
2022/04/27 13:17:08;;;;;;;9.48;3.28;;;;;;;;;;5005305;28;94948;-72
2022/04/27 13:19:35;;;;;;;5.78;3.03;;;;;;;;;;5001791;28;93063;-75
2022/04/27 13:22:02;;;;;;;10.65;3.60;;;;;;;;;;5008354;28;92417;-76
2022/04/27 13:24:28;;;;;;;7.97;3.50;;;;;;;;;;5004870;28;93624;-74
2022/04/27 13:27:14;;;;;;;7.40;3.50;;;;;;;;;;4987880;28;93021;-75
2022/04/27 13:29:41;;;;;;;8.25;3.13;;;;;;;;;;5007535;28;92623;-77
2022/04/27 13:32:08;;;;;;;6.40;3.00;;;;;;;;;;4997942;28;92508;-75
2022/04/27 13:34:35;;;;;;;9.73;3.15;;;;;;;;;;4995209;28;91629;-76
2022/04/27 13:37:01;;;;;;;6.38;2.70;;;;;;;;;;5005054;28;93049;-77
2022/04/27 13:39:27;;;;;;;5.82;3.13;;;;;;;;;;5004636;28;93699;-77
2022/04/27 13:41:55;;;;;;;8.30;3.20;;;;;;;;;;5000741;28;94810;-76
2022/04/27 13:44:22;;;;;;;5.95;3.10;;;;;;;;;;5008510;28;95638;-76
2022/04/27 13:46:58;;;;;;;11.70;3.30;;;;;;;;;;5015209;28;93621;-76
2022/04/27 13:49:26;;;;;;;8.77;3.30;;;;;;;;;;5000747;28;92286;-73
2022/04/27 13:51:52;;;;;;;7.18;3.22;;;;;;;;;;5009887;28;93587;-74
2022/04/27 13:54:19;;;;;;;4.85;3.25;;;;;;;;;;5008007;28;92306;-77
2022/04/27 13:56:45;;;;;;;8.00;3.17;;;;;;;;;;5010884;28;93242;-75
2022/04/27 13:59:12;;;;;;;7.95;3.20;;;;;;;;;;5003467;28;93119;-76
2022/04/27 14:01:39;;;;;;;5.40;3.10;;;;;;;;;;5011944;28;92451;-72
2022/04/27 14:04:06;;;;;;;6.80;2.95;;;;;;;;;;5006203;28;92752;-73
2022/04/27 14:06:33;;;;;;;7.25;2.97;;;;;;;;;;5006085;28;96630;-75
2022/04/27 14:08:59;;;;;;;6.13;3.60;;;;;;;;;;5007697;28;92298;-74
2022/04/27 14:14:11;;;;;;;5.32;3.10;;;;;;;;;;5008062;28;93628;-73
2022/04/27 14:19:22;;;;;;;9.60;3.40;;;;;;;;;;5002202;28;93609;-73
2022/04/27 14:21:49;;;;;;;8.48;4.00;;;;;;;;;;5003452;28;92144;-75
2022/04/27 14:24:17;;;;;;;8.80;3.58;;;;;;;;;;5010450;28;94946;-75
2022/04/27 14:26:44;;;;;;;6.10;3.88;;;;;;;;;;5007601;28;94514;-75
2022/04/27 14:29:10;;;;;;;8.85;3.30;;;;;;;;;;5009395;28;92952;-74
2022/04/27 14:31:37;;;;;;;9.52;3.60;;;;;;;;;;5007607;28;94612;-76
2022/04/27 14:34:03;;;;;;;9.20;3.30;;;;;;;;;;4993019;28;96844;-74
2022/04/27 14:36:29;;;;;;;6.22;3.00;;;;;;;;;;5010250;28;93567;-76
2022/04/27 14:38:58;;;;;;;7.82;2.95;;;;;;;;;;5002799;28;92699;-73
2022/04/27 14:41:25;;;;;;;4.07;3.03;;;;;;;;;;5002645;28;92360;-76
2022/04/27 14:43:52;;;;;;;6.85;2.97;;;;;;;;;;5007836;28;93381;-75
2022/04/27 14:46:18;;;;;;;8.90;3.83;;;;;;;;;;5008892;28;94102;-76
2022/04/27 14:48:45;;;;;;;5.75;2.92;;;;;;;;;;5008912;28;91861;-76
2022/04/27 14:51:11;;;;;;;7.22;3.28;;;;;;;;;;4986249;28;93231;-75
2022/04/27 14:53:38;;;;;;;7.05;2.80;;;;;;;;;;5009532;28;93278;-75
2022/04/27 14:56:07;;;;;;;8.07;3.15;;;;;;;;;;4987392;28;94749;-76
2022/04/27 14:58:34;;;;;;;6.53;3.28;;;;;;;;;;5004025;28;93693;-75
2022/04/27 15:01:01;;;;;;;4.57;2.80;;;;;;;;;;5007157;28;92339;-74
2022/04/27 15:03:30;;;;;;;12.90;5.30;;;;;;;;;;5006737;28;92823;-74
2022/04/27 15:05:57;;;;;;;9.60;3.17;;;;;;;;;;5001539;28;94693;-75
2022/04/27 15:08:24;;;;;;;7.78;3.10;;;;;;;;;;5004745;28;92453;-78
2022/04/27 15:10:51;;;;;;;14.30;3.65;;;;;;;;;;5003671;28;92552;-78
2022/04/27 15:13:18;;;;;;;10.32;3.40;;;;;;;;;;5010578;28;96372;-76
2022/04/27 15:15:46;;;;;;;9.25;4.03;;;;;;;;;;4985651;28;92445;-77
2022/04/27 15:18:16;;;;;;;11.65;3.17;;;;;;;;;;5009051;28;92299;-75
2022/04/27 15:23:28;;;;;;;7.28;3.95;;;;;;;;;;5007515;28;96247;-74
2022/04/27 15:25:55;;;;;;;7.97;4.03;;;;;;;;;;5007884;28;93178;-76
2022/04/27 15:28:21;;;;;;;6.65;3.42;;;;;;;;;;4986550;28;92411;-76
2022/04/27 15:30:47;;;;;;;8.55;3.20;;;;;;;;;;5006383;28;94010;-76
2022/04/27 15:33:14;;;;;;;6.78;3.47;;;;;;;;;;5008967;28;94484;-76